Time;durP1;ratioP1;P1;durP2;ratioP2;P2;SDS_P1;SDS_P2;PMS_P1;PMS_P2;Temp;Humidity;BMP_temperature;BMP_pressure;BME280_temperature;BME280_humidity;BME280_pressure;Samples;Min_cycle;Max_cycle;Signal;HPM_P1;HPM_P2
2023/08/16 00:01:48;;;;;;;;;;;;;;;22.56;65.45;97131.35;559624;253;66393;-70
2023/08/16 00:04:16;;;;;;;;;;;;;;;22.56;65.40;97133.20;559625;253;65058;-70
2023/08/16 00:06:43;;;;;;;;;;;;;;;22.56;65.38;97133.20;559699;252;66889;-70
2023/08/16 00:09:11;;;;;;;;;;;;;;;22.56;65.32;97146.59;559581;253;66984;-70
2023/08/16 00:11:38;;;;;;;;;;;;;;;22.55;65.28;97143.13;559597;253;65180;-70
2023/08/16 00:14:06;;;;;;;;;;;;;;;22.55;65.42;97142.33;559575;253;67059;-70
2023/08/16 00:16:33;;;;;;;;;;;;;;;22.56;65.42;97133.20;559634;253;66743;-70
2023/08/16 00:19:01;;;;;;;;;;;;;;;22.55;65.41;97126.26;559632;253;64934;-70
2023/08/16 00:21:28;;;;;;;;;;;;;;;22.55;65.31;97128.94;559578;253;66882;-70
2023/08/16 00:23:56;;;;;;;;;;;;;;;22.55;65.48;97129.73;559546;253;67004;-70
2023/08/16 00:26:24;;;;;;;;;;;;;;;22.55;65.75;97124.38;559579;253;65419;-70
2023/08/16 00:28:53;;;;;;;;;;;;;;;22.56;65.81;97122.49;559531;253;64139;-70
2023/08/16 00:31:21;;;;;;;;;;;;;;;22.56;65.53;97123.31;559612;253;66977;-70
2023/08/16 00:33:48;;;;;;;;;;;;;;;22.55;65.48;97113.66;559594;253;65121;-70
2023/08/16 00:36:16;;;;;;;;;;;;;;;22.55;65.79;97124.38;559552;253;65151;-70
2023/08/16 00:38:43;;;;;;;;;;;;;;;22.55;65.26;97123.58;559635;253;67083;-70
2023/08/16 00:41:11;;;;;;;;;;;;;;;22.55;65.31;97112.87;559680;253;64893;-70
2023/08/16 00:43:40;;;;;;;;;;;;;;;22.55;65.80;97118.22;559578;253;68145;-70
2023/08/16 00:46:11;;;;;;;;;;;;;;;22.55;65.62;97116.34;559607;253;64538;-70
2023/08/16 00:48:40;;;;;;;;;;;;;;;22.55;65.46;97123.58;559303;253;64117;-70
2023/08/16 00:51:09;;;;;;;;;;;;;;;22.55;66.15;97118.22;559594;253;67345;-70
2023/08/16 00:53:38;;;;;;;;;;;;;;;22.55;65.66;97104.83;559585;253;67246;-70
2023/08/16 00:56:05;;;;;;;;;;;;;;;22.55;65.90;97107.52;559630;253;65156;-70
2023/08/16 00:58:34;;;;;;;;;;;;;;;22.54;65.61;97114.75;555443;253;66874;-70
2023/08/16 01:01:02;;;;;;;;;;;;;;;22.55;65.43;97119.02;559652;253;67143;-70
2023/08/16 01:03:30;;;;;;;;;;;;;;;22.55;65.52;97107.52;559534;253;62780;-70
2023/08/16 01:05:57;;;;;;;;;;;;;;;22.55;65.14;97120.91;559714;252;67028;-70
2023/08/16 01:08:25;;;;;;;;;;;;;;;22.54;65.05;97116.64;559613;253;66975;-70
2023/08/16 01:11:07;;;;;;;;;;;;;;;22.54;65.33;97117.43;559638;253;66175;-70
2023/08/16 01:13:53;;;;;;;;;;;;;;;22.55;65.58;97112.87;559572;253;65000;-70
2023/08/16 01:16:21;;;;;;;;;;;;;;;22.54;65.13;97106.72;559669;253;66720;-70
2023/08/16 01:18:51;;;;;;;;;;;;;;;22.54;65.92;97106.72;559669;253;65139;-70
2023/08/16 01:21:20;;;;;;;;;;;;;;;22.53;65.89;97102.42;559613;252;65739;-70
2023/08/16 01:23:55;;;;;;;;;;;;;;;22.54;65.17;97105.92;559584;253;67426;-70
2023/08/16 01:26:24;;;;;;;;;;;;;;;22.54;66.13;97117.43;559471;253;65154;-70
2023/08/16 01:28:52;;;;;;;;;;;;;;;22.54;66.15;97113.95;559595;253;67164;-70
2023/08/16 01:31:21;;;;;;;;;;;;;;;22.53;65.12;97115.81;559597;253;67392;-70
2023/08/16 01:33:49;;;;;;;;;;;;;;;22.54;65.30;97132.70;559592;253;65077;-70
2023/08/16 01:36:16;;;;;;;;;;;;;;;22.54;65.87;97132.70;559614;253;64915;-70
2023/08/16 01:38:44;;;;;;;;;;;;;;;22.52;66.21;97119.58;559563;253;64888;-70
2023/08/16 01:41:16;;;;;;;;;;;;;;;22.53;65.04;97113.13;559628;253;62870;-70
2023/08/16 01:43:45;;;;;;;;;;;;;;;22.53;64.91;97115.02;559562;253;64659;-70
2023/08/16 01:46:14;;;;;;;;;;;;;;;22.53;64.97;97123.05;559583;253;64898;-70
2023/08/16 01:48:42;;;;;;;;;;;;;;;22.54;64.96;97113.95;559609;253;65242;-70
2023/08/16 01:51:10;;;;;;;;;;;;;;;22.53;64.90;97121.17;559635;253;65276;-70
2023/08/16 01:53:38;;;;;;;;;;;;;;;22.54;64.88;97111.28;559575;253;64950;-70
2023/08/16 01:56:06;;;;;;;;;;;;;;;22.52;64.86;97122.26;559710;253;65664;-69
2023/08/16 01:58:34;;;;;;;;;;;;;;;22.53;64.83;97109.66;559713;253;64952;-69
2023/08/16 02:01:01;;;;;;;;;;;;;;;22.53;64.90;97109.66;559735;253;65102;-69
2023/08/16 02:03:29;;;;;;;;;;;;;;;22.52;65.07;97100.83;559642;253;66069;-69
2023/08/16 02:05:56;;;;;;;;;;;;;;;22.52;65.27;97106.19;559779;252;66994;-69
2023/08/16 02:08:24;;;;;;;;;;;;;;;22.52;65.28;97110.75;559703;253;67049;-70
2023/08/16 02:10:51;;;;;;;;;;;;;;;22.53;65.50;97102.42;559787;253;64867;-69
2023/08/16 02:13:19;;;;;;;;;;;;;;;22.52;65.71;97098.16;559674;253;67145;-70
2023/08/16 02:15:46;;;;;;;;;;;;;;;22.52;66.31;97098.16;559609;253;66897;-69
2023/08/16 02:18:16;;;;;;;;;;;;;;;22.51;65.72;97099.24;559592;253;65606;-70
2023/08/16 02:20:43;;;;;;;;;;;;;;;22.53;65.69;97096.27;559652;253;67172;-70
2023/08/16 02:23:11;;;;;;;;;;;;;;;22.52;65.66;97092.80;559697;253;66922;-70
2023/08/16 02:25:39;;;;;;;;;;;;;;;22.51;65.47;97096.56;559622;253;62799;-70
2023/08/16 02:28:07;;;;;;;;;;;;;;;22.52;65.63;97095.47;559621;253;67141;-70
2023/08/16 02:30:36;;;;;;;;;;;;;;;22.52;65.52;97090.13;555451;253;67976;-70
2023/08/16 02:33:04;;;;;;;;;;;;;;;22.52;65.17;97089.33;559588;253;64950;-70
2023/08/16 02:35:31;;;;;;;;;;;;;;;22.52;65.37;97094.68;559579;253;67347;-70
2023/08/16 02:37:59;;;;;;;;;;;;;;;22.52;65.73;97102.72;559589;253;64855;-70
2023/08/16 02:40:27;;;;;;;;;;;;;;;22.51;65.20;97107.28;559603;253;64943;-70
2023/08/16 02:42:54;;;;;;;;;;;;;;;22.51;65.19;97104.60;559561;253;67110;-70
2023/08/16 02:45:22;;;;;;;;;;;;;;;22.52;65.63;97108.08;559694;253;67095;-70
2023/08/16 02:47:49;;;;;;;;;;;;;;;22.52;65.69;97098.16;559549;253;66046;-70
2023/08/16 02:50:18;;;;;;;;;;;;;;;22.51;66.27;97095.77;559620;253;67333;-70
2023/08/16 02:52:45;;;;;;;;;;;;;;;22.52;66.96;97094.68;559531;253;67137;-70
2023/08/16 02:55:13;;;;;;;;;;;;;;;22.51;67.12;97106.48;559585;253;65022;-70
2023/08/16 02:57:40;;;;;;;;;;;;;;;22.51;67.46;97098.45;559549;253;67009;-70
2023/08/16 03:00:10;;;;;;;;;;;;;;;22.51;67.36;97096.56;559678;252;47906;-69
2023/08/16 03:02:38;;;;;;;;;;;;;;;22.50;66.74;97102.19;555389;253;64458;-69
2023/08/16 03:05:06;;;;;;;;;;;;;;;22.51;67.59;97101.12;559648;252;66136;-70
2023/08/16 03:07:33;;;;;;;;;;;;;;;22.50;68.01;97100.30;559646;252;67975;-69
2023/08/16 03:10:01;;;;;;;;;;;;;;;22.50;68.50;97099.51;559559;253;65327;-69
2023/08/16 03:12:29;;;;;;;;;;;;;;;22.50;68.94;97099.51;559540;252;67722;-72
2023/08/16 03:14:56;;;;;;;;;;;;;;;22.49;69.33;97103.27;559623;252;65939;-72
2023/08/16 03:17:26;;;;;;;;;;;;;;;22.49;69.54;97105.95;559596;252;65715;-72
2023/08/16 03:19:54;;;;;;;;;;;;;;;22.48;69.76;97101.66;559664;253;67150;-72
2023/08/16 03:22:22;;;;;;;;;;;;;;;22.48;69.61;97112.37;559662;252;67005;-72
2023/08/16 03:24:49;;;;;;;;;;;;;;;22.48;69.58;97117.72;559607;252;62142;-70
2023/08/16 03:27:17;;;;;;;;;;;;;;;22.47;69.72;97100.07;559565;252;67629;-69
2023/08/16 03:29:45;;;;;;;;;;;;;;;22.47;69.68;97114.25;559647;253;66887;-69
2023/08/16 03:32:12;;;;;;;;;;;;;;;22.46;69.62;97118.02;559593;253;62776;-69
2023/08/16 03:34:41;;;;;;;;;;;;;;;22.46;69.72;97107.30;559663;252;64934;-69
2023/08/16 03:37:09;;;;;;;;;;;;;;;22.46;69.69;97101.95;559739;252;67276;-69
2023/08/16 03:39:37;;;;;;;;;;;;;;;22.46;69.59;97109.19;559589;253;62491;-70
2023/08/16 03:42:05;;;;;;;;;;;;;;;22.45;69.83;97110.25;559667;252;64975;-69
2023/08/16 03:44:32;;;;;;;;;;;;;;;22.47;69.90;97102.75;559677;252;64746;-69
2023/08/16 03:47:00;;;;;;;;;;;;;;;22.45;69.93;97107.58;559606;252;62986;-69
2023/08/16 03:49:28;;;;;;;;;;;;;;;22.45;69.92;97103.02;559639;253;67461;-69
2023/08/16 03:51:55;;;;;;;;;;;;;;;22.46;69.82;97103.84;559617;252;67401;-72
2023/08/16 03:54:22;;;;;;;;;;;;;;;22.46;69.86;97098.48;559707;253;65116;-72
2023/08/16 03:56:50;;;;;;;;;;;;;;;22.45;69.87;97096.86;559716;253;67258;-72
2023/08/16 03:59:17;;;;;;;;;;;;;;;22.45;69.87;97096.86;559734;253;67101;-72
2023/08/16 04:01:46;;;;;;;;;;;;;;;22.44;69.87;97089.92;559612;253;62116;-72
2023/08/16 04:04:13;;;;;;;;;;;;;;;22.45;69.91;97094.19;559611;253;67219;-72
2023/08/16 04:06:40;;;;;;;;;;;;;;;22.45;69.82;97094.19;559584;253;66903;-72
2023/08/16 04:09:09;;;;;;;;;;;;;;;22.44;69.58;97095.27;559652;253;64962;-71
2023/08/16 04:11:37;;;;;;;;;;;;;;;22.44;69.66;97095.27;559806;253;64525;-74
2023/08/16 04:14:04;;;;;;;;;;;;;;;22.44;69.81;97098.74;559570;253;65569;-75
2023/08/16 04:16:32;;;;;;;;;;;;;;;22.45;69.85;97103.02;559623;253;62905;-74
2023/08/16 04:18:59;;;;;;;;;;;;;;;22.44;69.75;97104.10;559673;252;68225;-75
2023/08/16 04:21:27;;;;;;;;;;;;;;;22.43;69.72;97099.83;559613;253;64613;-75
2023/08/16 04:23:54;;;;;;;;;;;;;;;22.44;69.74;97103.31;559638;253;62994;-75
2023/08/16 04:26:22;;;;;;;;;;;;;;;22.44;69.79;97101.42;559644;253;66900;-74
2023/08/16 04:28:49;;;;;;;;;;;;;;;22.44;69.65;97097.95;559693;253;66675;-75
2023/08/16 04:31:18;;;;;;;;;;;;;;;22.43;69.59;97109.75;560928;250;62445;-74
2023/08/16 04:33:45;;;;;;;;;;;;;;;22.44;69.67;97105.98;564395;250;67088;-75
2023/08/16 04:36:14;;;;;;;;;;;;;;;22.44;69.68;97105.98;565216;250;64450;-74
2023/08/16 04:38:42;;;;;;;;;;;;;;;22.45;69.67;97118.28;565438;251;65591;-74
2023/08/16 04:41:10;;;;;;;;;;;;;;;22.44;69.74;97112.13;564884;249;64988;-75
2023/08/16 04:43:37;;;;;;;;;;;;;;;22.43;69.64;97115.91;565196;250;64802;-74
2023/08/16 04:46:05;;;;;;;;;;;;;;;22.44;69.76;97119.37;565171;251;62876;-75
2023/08/16 04:48:32;;;;;;;;;;;;;;;22.43;69.65;97115.91;565037;251;67163;-74
2023/08/16 04:51:00;;;;;;;;;;;;;;;22.44;69.34;97114.02;565138;250;66950;-75
2023/08/16 04:53:28;;;;;;;;;;;;;;;22.43;69.47;97115.91;565196;250;62995;-75
2023/08/16 04:55:56;;;;;;;;;;;;;;;22.44;69.53;97111.34;564762;249;67736;-75
2023/08/16 04:58:24;;;;;;;;;;;;;;;22.43;69.66;97115.91;564651;250;67581;-74
2023/08/16 05:00:52;;;;;;;;;;;;;;;22.44;69.82;97127.41;564880;250;65669;-75
2023/08/16 05:03:20;;;;;;;;;;;;;;;22.43;69.93;97115.91;564774;251;66878;-74
2023/08/16 05:05:48;;;;;;;;;;;;;;;22.43;69.79;97117.78;565211;250;64868;-74
2023/08/16 05:08:15;;;;;;;;;;;;;;;22.44;69.82;97116.70;564808;250;62819;-69
2023/08/16 05:10:43;;;;;;;;;;;;;;;22.43;69.87;97115.11;565014;250;64959;-76
2023/08/16 05:13:10;;;;;;;;;;;;;;;22.45;67.92;97116.41;565485;251;67168;-74
2023/08/16 05:15:38;;;;;;;;;;;;;;;22.46;66.16;97122.58;565351;251;65186;-75
2023/08/16 05:18:05;;;;;;;;;;;;;;;22.49;66.30;97122.02;565543;250;65050;-75
2023/08/16 05:20:34;;;;;;;;;;;;;;;22.51;66.88;97119.87;564759;250;64889;-75
2023/08/16 05:23:02;;;;;;;;;;;;;;;22.53;66.48;97121.17;565035;251;62517;-75
2023/08/16 05:25:29;;;;;;;;;;;;;;;22.54;66.18;97125.47;565185;250;64613;-75
2023/08/16 05:27:58;;;;;;;;;;;;;;;22.56;67.55;97117.14;565028;251;64836;-75
2023/08/16 05:30:26;;;;;;;;;;;;;;;22.57;67.65;97113.40;565024;251;65105;-75
2023/08/16 05:32:55;;;;;;;;;;;;;;;22.58;68.10;97112.30;565052;251;67532;-75
2023/08/16 05:35:22;;;;;;;;;;;;;;;22.59;67.99;97117.40;565295;250;66996;-75
2023/08/16 05:37:54;;;;;;;;;;;;;;;22.60;68.08;97120.87;565470;251;64968;-75
2023/08/16 05:40:22;;;;;;;;;;;;;;;22.60;68.07;97115.52;565485;250;67138;-75
2023/08/16 05:42:49;;;;;;;;;;;;;;;22.60;68.45;97116.31;565395;251;64807;-75
2023/08/16 05:45:21;;;;;;;;;;;;;;;22.61;68.57;97106.39;565446;251;62834;-75
2023/08/16 05:47:46;;;;;;;;;;;;;;;22.62;68.42;97108.01;565408;251;64979;-75
2023/08/16 05:50:14;;;;;;;;;;;;;;;22.62;68.31;97105.33;565491;250;66963;-75
2023/08/16 05:52:41;;;;;;;;;;;;;;;22.63;68.40;97106.92;565518;250;62845;-75
2023/08/16 05:55:09;;;;;;;;;;;;;;;22.63;68.41;97104.23;565414;251;64931;-75
2023/08/16 05:57:36;;;;;;;;;;;;;;;22.63;68.38;97104.23;565383;250;64944;-75
2023/08/16 06:00:04;;;;;;;;;;;;;;;22.64;68.23;97113.86;564656;250;63709;-64
2023/08/16 06:02:33;;;;;;;;;;;;;;;22.64;68.33;97105.83;564790;250;45589;-65
2023/08/16 06:05:01;;;;;;;;;;;;;;;22.64;68.63;97108.51;564856;250;65016;-70
2023/08/16 06:07:28;;;;;;;;;;;;;;;22.63;67.59;97112.27;564512;250;65062;-65
2023/08/16 06:09:56;;;;;;;;;;;;;;;22.62;68.50;97118.72;562765;248;65035;-74
2023/08/16 06:12:23;;;;;;;;;;;;;;;22.62;68.66;97108.01;556500;252;64471;-75
2023/08/16 06:14:51;;;;;;;;;;;;;;;22.61;68.73;97107.19;557018;252;65122;-76
2023/08/16 06:17:18;;;;;;;;;;;;;;;22.60;68.59;97102.92;557057;252;67221;-74
2023/08/16 06:19:46;;;;;;;;;;;;;;;22.60;68.57;97108.27;556855;252;67251;-77
2023/08/16 06:22:13;;;;;;;;;;;;;;;22.62;68.51;97108.01;556883;252;64932;-65
2023/08/16 06:24:41;;;;;;;;;;;;;;;22.60;67.67;97105.59;557364;251;67296;-76
2023/08/16 06:27:09;;;;;;;;;;;;;;;22.68;65.50;97106.09;557176;252;64871;-75
2023/08/16 06:29:36;;;;;;;;;;;;;;;22.69;65.08;97094.28;556767;252;62759;-78
2023/08/16 06:32:04;;;;;;;;;;;;;;;22.69;64.60;97097.76;556980;252;64891;-73
2023/08/16 06:34:31;;;;;;;;;;;;;;;22.72;65.00;97107.12;556637;252;64738;-78
2023/08/16 06:36:59;;;;;;;;;;;;;;;22.72;65.92;97109.80;557373;252;62883;-79
2023/08/16 06:39:26;;;;;;;;;;;;;;;22.71;66.70;97100.97;556896;252;66731;-78
2023/08/16 06:41:54;;;;;;;;;;;;;;;22.73;66.21;97108.73;557398;252;66910;-80
2023/08/16 06:44:21;;;;;;;;;;;;;;;22.72;65.76;97107.12;564889;248;65349;-78
2023/08/16 06:46:49;;;;;;;;;;;;;;;22.73;65.63;97103.38;562612;252;67309;-78
2023/08/16 06:49:16;;;;;;;;;;;;;;;22.74;66.19;97105.76;562569;252;67871;-77
2023/08/16 06:51:44;;;;;;;;;;;;;;;22.74;66.58;97108.44;562489;252;65306;-79
2023/08/16 06:54:11;;;;;;;;;;;;;;;22.75;66.52;97101.20;562552;252;67106;-72
2023/08/16 06:56:39;;;;;;;;;;;;;;;22.75;66.60;97104.70;562562;252;64895;-71
2023/08/16 06:59:06;;;;;;;;;;;;;;;22.74;66.06;97105.76;562322;252;62875;-72
2023/08/16 07:01:34;;;;;;;;;;;;;;;22.73;67.93;97098.81;562280;252;67122;-72
2023/08/16 07:04:01;;;;;;;;;;;;;;;22.70;67.27;97102.05;562107;252;67066;-73
2023/08/16 07:06:31;;;;;;;;;;;;;;;22.70;67.72;97096.70;562428;252;64954;-73
2023/08/16 07:09:00;;;;;;;;;;;;;;;22.71;67.97;97094.81;562419;252;67080;-72
2023/08/16 07:11:27;;;;;;;;;;;;;;;22.70;68.34;97093.19;562392;252;66982;-72
2023/08/16 07:13:54;;;;;;;;;;;;;;;22.69;68.31;97095.08;562589;252;64947;-70
2023/08/16 07:16:22;;;;;;;;;;;;;;;22.68;68.27;97095.38;562480;252;67261;-71
2023/08/16 07:18:49;;;;;;;;;;;;;;;22.68;68.30;97096.17;562612;251;66916;-71
2023/08/16 07:21:17;;;;;;;;;;;;;;;22.68;68.50;97095.38;562328;252;65184;-69
2023/08/16 07:23:45;;;;;;;;;;;;;;;22.67;68.56;97097.26;562553;252;67340;-71
2023/08/16 07:26:12;;;;;;;;;;;;;;;22.67;68.67;97097.26;562514;250;66976;-77
2023/08/16 07:28:40;;;;;;;;;;;;;;;22.68;68.76;97095.38;562600;252;64929;-72
2023/08/16 07:31:08;;;;;;;;;;;;;;;22.67;68.88;97091.08;562426;252;67122;-77
2023/08/16 07:33:35;;;;;;;;;;;;;;;22.66;68.96;97089.49;562267;252;65271;-72
2023/08/16 07:36:04;;;;;;;;;;;;;;;22.65;68.77;97099.41;562494;252;62881;-69
2023/08/16 07:38:33;;;;;;;;;;;;;;;22.66;68.93;97092.17;562332;251;48372;-68
2023/08/16 07:41:00;;;;;;;;;;;;;;;22.66;68.70;97101.00;562455;252;65017;-74
2023/08/16 07:43:31;;;;;;;;;;;;;;;22.66;68.86;97098.32;562483;252;65146;-77
2023/08/16 07:45:58;;;;;;;;;;;;;;;22.65;68.66;97099.41;562515;252;67123;-66
2023/08/16 07:48:26;;;;;;;;;;;;;;;22.66;68.57;97103.68;562362;252;64922;-78
2023/08/16 07:50:53;;;;;;;;;;;;;;;22.66;68.18;97106.36;562433;252;62804;-78
2023/08/16 07:53:22;;;;;;;;;;;;;;;22.66;68.41;97103.68;561821;249;63614;-77
2023/08/16 07:55:49;;;;;;;;;;;;;;;22.66;68.52;97109.03;565448;250;66908;-77
2023/08/16 07:58:17;;;;;;;;;;;;;;;22.66;68.69;97100.20;565347;251;62662;-76
2023/08/16 08:00:47;;;;;;;;;;;;;;;22.66;68.74;97101.00;565269;251;68366;-77
2023/08/16 08:03:14;;;;;;;;;;;;;;;22.66;68.62;97092.96;565238;251;67038;-66
2023/08/16 08:05:41;;;;;;;;;;;;;;;22.67;68.36;97104.47;565327;251;64911;-66
2023/08/16 08:08:11;;;;;;;;;;;;;;;22.66;67.57;97100.20;565339;251;67256;-66
2023/08/16 08:10:39;;;;;;;;;;;;;;;22.66;66.75;97102.88;565241;251;67729;-68
2023/08/16 08:13:08;;;;;;;;;;;;;;;22.68;66.51;97114.13;565122;250;63049;-67
2023/08/16 08:15:35;;;;;;;;;;;;;;;22.67;65.97;97107.98;565341;251;66984;-75
2023/08/16 08:18:03;;;;;;;;;;;;;;;22.68;66.38;97104.20;565531;250;66499;-73
2023/08/16 08:20:31;;;;;;;;;;;;;;;22.69;67.36;97105.80;565357;251;64955;-69
2023/08/16 08:22:58;;;;;;;;;;;;;;;22.69;68.50;97097.76;565310;250;64694;-69
2023/08/16 08:25:25;;;;;;;;;;;;;;;22.69;68.62;97103.11;565303;250;64672;-69
2023/08/16 08:27:53;;;;;;;;;;;;;;;22.69;68.65;97099.64;565388;250;62779;-73
2023/08/16 08:30:20;;;;;;;;;;;;;;;22.68;68.24;97100.73;565177;249;64494;-75
2023/08/16 08:32:48;;;;;;;;;;;;;;;22.68;68.23;97100.73;563418;249;64442;-68
2023/08/16 08:35:16;;;;;;;;;;;;;;;22.68;68.33;97090.81;561360;249;65199;-76
2023/08/16 08:37:43;;;;;;;;;;;;;;;22.68;67.56;97101.53;560425;251;66823;-75
2023/08/16 08:40:10;;;;;;;;;;;;;;;22.69;67.49;97102.32;560385;251;66771;-69
2023/08/16 08:42:39;;;;;;;;;;;;;;;22.68;67.74;97101.53;560055;251;64941;-70
2023/08/16 08:45:07;;;;;;;;;;;;;;;22.70;67.28;97101.23;560382;253;65058;-69
2023/08/16 08:47:35;;;;;;;;;;;;;;;22.69;66.79;97096.96;560961;251;67509;-75
2023/08/16 08:50:03;;;;;;;;;;;;;;;22.69;65.96;97097.76;560317;253;62948;-69
2023/08/16 08:52:30;;;;;;;;;;;;;;;22.70;65.49;97093.19;560198;251;64945;-74
2023/08/16 08:54:58;;;;;;;;;;;;;;;22.70;65.26;97101.23;561171;249;64950;-73
2023/08/16 08:57:32;;;;;;;;;;;;;;;22.71;65.20;97106.33;564525;249;65060;-75
2023/08/16 08:59:59;;;;;;;;;;;;;;;22.71;65.14;97103.64;564919;249;67346;-77
2023/08/16 09:02:28;;;;;;;;;;;;;;;22.71;65.04;97103.64;564531;249;66979;-76
2023/08/16 09:04:57;;;;;;;;;;;;;;;22.71;65.04;97095.61;564270;249;64966;-69
2023/08/16 09:07:25;;;;;;;;;;;;;;;22.73;65.05;97103.38;563593;249;66839;-68
2023/08/16 09:09:54;;;;;;;;;;;;;;;22.72;64.98;97096.41;564940;249;69359;-68
2023/08/16 09:12:21;;;;;;;;;;;;;;;22.72;65.05;97091.84;563527;249;63160;-73
2023/08/16 09:14:49;;;;;;;;;;;;;;;22.72;65.05;97091.84;565128;250;64829;-70
2023/08/16 09:17:17;;;;;;;;;;;;;;;22.73;65.03;97096.14;565289;251;64845;-68
2023/08/16 09:19:45;;;;;;;;;;;;;;;22.73;65.05;97098.81;564916;249;65132;-68
2023/08/16 09:22:14;;;;;;;;;;;;;;;22.73;65.19;97093.45;565064;249;67233;-70
2023/08/16 09:24:44;;;;;;;;;;;;;;;22.73;64.98;97093.45;564586;249;64950;-66
2023/08/16 09:27:12;;;;;;;;;;;;;;;22.74;65.03;97103.08;564090;249;63076;-77
2023/08/16 09:29:40;;;;;;;;;;;;;;;22.74;64.97;97097.72;564763;249;67139;-71
2023/08/16 09:32:08;;;;;;;;;;;;;;;22.74;65.07;97097.72;564749;249;66986;-65
2023/08/16 09:34:36;;;;;;;;;;;;;;;22.74;65.03;97099.61;563987;249;63906;-65
2023/08/16 09:37:04;;;;;;;;;;;;;;;22.75;65.07;97096.66;564764;249;64561;-65
2023/08/16 09:39:32;;;;;;;;;;;;;;;22.74;64.92;97097.72;565061;249;67183;-68
2023/08/16 09:42:00;;;;;;;;;;;;;;;22.75;65.03;97090.48;565004;249;63220;-68
2023/08/16 09:44:34;;;;;;;;;;;;;;;22.75;65.93;97091.30;565219;250;67337;-69
2023/08/16 09:46:59;;;;;;;;;;;;;;;22.76;65.17;97081.37;564963;250;67069;-76
2023/08/16 09:49:26;;;;;;;;;;;;;;;22.76;65.27;97082.17;564769;250;62776;-76
2023/08/16 09:51:54;;;;;;;;;;;;;;;22.76;65.14;97082.17;564643;251;67130;-68
2023/08/16 09:54:23;;;;;;;;;;;;;;;22.76;65.10;97076.02;564632;250;66649;-77
2023/08/16 09:56:51;;;;;;;;;;;;;;;22.76;65.03;97079.50;564744;250;65019;-74
2023/08/16 09:59:18;;;;;;;;;;;;;;;22.76;65.07;97086.73;564210;249;67145;-73
2023/08/16 10:01:46;;;;;;;;;;;;;;;22.77;65.07;97091.80;564875;250;65203;-75
2023/08/16 10:04:14;;;;;;;;;;;;;;;22.77;65.13;97089.13;565038;251;62908;-75
2023/08/16 10:06:42;;;;;;;;;;;;;;;22.77;65.13;97081.08;564810;250;65046;-76
2023/08/16 10:09:10;;;;;;;;;;;;;;;22.76;65.15;97082.17;564872;250;64904;-72
2023/08/16 10:11:38;;;;;;;;;;;;;;;22.78;65.15;97085.38;565178;250;65115;-74
2023/08/16 10:14:07;;;;;;;;;;;;;;;22.79;65.49;97086.97;565467;250;65023;-65
2023/08/16 10:16:38;;;;;;;;;;;;;;;22.80;65.84;97082.41;565153;250;66893;-78
2023/08/16 10:19:07;;;;;;;;;;;;;;;22.79;65.39;97083.50;565433;250;65176;-79
2023/08/16 10:21:36;;;;;;;;;;;;;;;22.79;65.21;97088.86;565338;251;66925;-74
2023/08/16 10:24:05;;;;;;;;;;;;;;;22.78;65.18;97090.73;565207;250;67054;-77
2023/08/16 10:26:33;;;;;;;;;;;;;;;22.78;65.12;97089.91;565500;250;65164;-76
2023/08/16 10:29:02;;;;;;;;;;;;;;;22.77;65.14;97089.13;565313;250;67362;-77
2023/08/16 10:31:31;;;;;;;;;;;;;;;22.80;66.06;97099.27;565284;251;64641;-75
2023/08/16 10:34:00;;;;;;;;;;;;;;;22.81;65.60;97094.73;565352;251;64990;-80
2023/08/16 10:36:28;;;;;;;;;;;;;;;22.82;65.73;97091.77;565671;250;65014;-76
2023/08/16 10:38:56;;;;;;;;;;;;;;;22.82;65.58;97086.41;565290;251;64858;-80
2023/08/16 10:41:24;;;;;;;;;;;;;;;22.81;65.48;97084.81;565032;250;62788;-79
2023/08/16 10:43:52;;;;;;;;;;;;;;;22.81;65.42;97089.37;565090;251;67129;-79
2023/08/16 10:46:27;;;;;;;;;;;;;;;22.81;65.32;97092.06;565132;250;65061;-79
2023/08/16 10:49:02;;;;;;;;;;;;;;;22.81;65.25;97095.53;566874;248;62843;-79
2023/08/16 10:51:30;;;;;;;;;;;;;;;22.81;65.25;97090.17;567973;247;67290;-78
2023/08/16 10:53:58;;;;;;;;;;;;;;;22.81;65.29;97094.73;568011;249;64784;-79
2023/08/16 10:56:27;;;;;;;;;;;;;;;22.81;65.27;97100.89;568042;250;62786;-79
2023/08/16 10:58:54;;;;;;;;;;;;;;;22.80;65.24;97096.59;567834;248;67085;-80
2023/08/16 11:01:23;;;;;;;;;;;;;;;22.81;65.20;97094.73;567981;250;68091;-79
2023/08/16 11:03:54;;;;;;;;;;;;;;;22.81;65.22;97090.17;567884;248;63804;-80
2023/08/16 11:06:21;;;;;;;;;;;;;;;22.81;65.21;97090.17;564295;248;67132;-79
2023/08/16 11:08:49;;;;;;;;;;;;;;;22.80;65.20;97083.20;565161;249;66689;-79
2023/08/16 11:11:17;;;;;;;;;;;;;;;22.81;65.21;97078.66;560355;253;65233;-76
2023/08/16 11:13:44;;;;;;;;;;;;;;;22.81;65.29;97084.81;560314;253;65793;-79
2023/08/16 11:16:12;;;;;;;;;;;;;;;22.82;65.34;97089.08;560410;253;65247;-79
2023/08/16 11:18:41;;;;;;;;;;;;;;;22.82;65.34;97091.77;560395;253;64953;-79
2023/08/16 11:21:10;;;;;;;;;;;;;;;22.83;65.37;97087.20;560295;253;64999;-77
2023/08/16 11:23:39;;;;;;;;;;;;;;;22.83;65.32;97093.38;560385;253;64872;-77
2023/08/16 11:26:08;;;;;;;;;;;;;;;22.83;65.28;97085.34;560351;253;65595;-77
2023/08/16 11:28:36;;;;;;;;;;;;;;;22.84;65.27;97078.09;560319;253;67141;-77
2023/08/16 11:31:04;;;;;;;;;;;;;;;22.83;65.29;97082.66;560393;253;64833;-79
2023/08/16 11:33:32;;;;;;;;;;;;;;;22.85;65.73;97084.25;560282;253;62847;-78
2023/08/16 11:36:01;;;;;;;;;;;;;;;22.85;65.58;97085.05;560388;253;66805;-75
2023/08/16 11:38:28;;;;;;;;;;;;;;;22.85;65.43;97084.25;560440;253;66979;-69
2023/08/16 11:40:57;;;;;;;;;;;;;;;22.85;65.34;97084.25;560280;253;64886;-72
2023/08/16 11:43:31;;;;;;;;;;;;;;;22.83;65.33;97088.02;560357;253;67540;-72
2023/08/16 11:46:00;;;;;;;;;;;;;;;22.84;65.29;97088.81;560354;253;67057;-72
2023/08/16 11:48:34;;;;;;;;;;;;;;;22.85;65.29;97081.57;560315;253;63055;-72
2023/08/16 11:50:58;;;;;;;;;;;;;;;22.83;65.26;97071.95;560257;251;64964;-68
2023/08/16 11:53:33;;;;;;;;;;;;;;;22.86;65.27;97080.48;560326;253;67110;-64
2023/08/16 11:56:02;;;;;;;;;;;;;;;22.86;65.52;97075.12;560278;251;65070;-72
2023/08/16 11:58:30;;;;;;;;;;;;;;;22.86;65.46;97089.31;560368;253;67232;-65
2023/08/16 12:01:04;;;;;;;;;;;;;;;22.86;65.43;97075.91;560371;253;65800;-72
2023/08/16 12:03:34;;;;;;;;;;;;;;;22.86;65.42;97069.77;560279;253;66024;-70
2023/08/16 12:06:04;;;;;;;;;;;;;;;22.86;65.37;97075.91;560236;253;67314;-70
2023/08/16 12:08:31;;;;;;;;;;;;;;;22.86;65.35;97075.91;560226;253;66947;-69
2023/08/16 12:10:58;;;;;;;;;;;;;;;22.86;65.34;97065.20;560258;253;64947;-69
2023/08/16 12:13:26;;;;;;;;;;;;;;;22.87;65.43;97060.66;563778;249;67128;-70
2023/08/16 12:15:54;;;;;;;;;;;;;;;22.87;65.43;97063.34;564930;249;67014;-74
2023/08/16 12:18:22;;;;;;;;;;;;;;;22.86;65.40;97073.23;564544;251;62818;-70
2023/08/16 12:20:52;;;;;;;;;;;;;;;22.87;65.45;97066.81;564771;251;67107;-70
2023/08/16 12:23:20;;;;;;;;;;;;;;;22.87;65.38;97061.45;564843;251;64253;-75
2023/08/16 12:25:47;;;;;;;;;;;;;;;22.88;65.46;97056.89;564897;251;65205;-75
2023/08/16 12:28:15;;;;;;;;;;;;;;;22.88;65.48;97063.04;565061;251;66919;-75
2023/08/16 12:30:42;;;;;;;;;;;;;;;22.89;65.48;97066.52;565053;251;66951;-68
2023/08/16 12:33:12;;;;;;;;;;;;;;;22.88;65.52;97063.04;565015;251;62926;-71
2023/08/16 12:35:39;;;;;;;;;;;;;;;22.89;65.53;97061.16;565035;251;66837;-69
2023/08/16 12:38:07;;;;;;;;;;;;;;;22.88;65.55;97063.04;565021;251;64611;-73
2023/08/16 12:40:35;;;;;;;;;;;;;;;22.89;65.54;97055.80;565077;251;64772;-70
2023/08/16 12:43:03;;;;;;;;;;;;;;;22.89;65.56;97061.16;564765;248;66710;-68
2023/08/16 12:45:31;;;;;;;;;;;;;;;22.90;65.59;97060.09;564960;249;65050;-68
2023/08/16 12:47:59;;;;;;;;;;;;;;;22.91;65.88;97061.68;565093;251;62760;-68
2023/08/16 12:50:26;;;;;;;;;;;;;;;22.90;65.76;97058.20;565062;251;66984;-72
2023/08/16 12:52:54;;;;;;;;;;;;;;;22.90;65.62;97049.38;564982;251;67014;-76